createdAt,value
2023-03-14T00:02:13.245Z,85.40
2023-03-14T00:04:34.844Z,87.07
2023-03-14T00:06:56.285Z,86.86
2023-03-14T00:09:18.640Z,88.71
2023-03-14T00:11:40.372Z,87.86
2023-03-14T00:14:02.240Z,87.11
2023-03-14T00:16:23.808Z,87.26
2023-03-14T00:18:45.419Z,86.57
2023-03-14T00:21:09.125Z,87.58
2023-03-14T00:23:32.221Z,88.07
2023-03-14T00:25:53.642Z,88.28
2023-03-14T00:28:15.082Z,90.93
2023-03-14T00:30:38.905Z,92.30
2023-03-14T00:33:00.472Z,93.02
2023-03-14T00:35:21.933Z,93.08
2023-03-14T00:37:43.430Z,93.67
2023-03-14T00:40:07.585Z,91.64
2023-03-14T00:42:29.030Z,91.45
2023-03-14T00:44:50.516Z,89.37
2023-03-14T00:47:11.992Z,89.78
2023-03-14T00:49:33.579Z,89.15
2023-03-14T00:51:55.130Z,89.25
2023-03-14T00:54:16.636Z,89.80
2023-03-14T00:56:38.097Z,89.02
2023-03-14T00:58:59.586Z,90.64
2023-03-14T01:01:21.118Z,90.78
2023-03-14T01:03:42.707Z,89.99
2023-03-14T01:06:18.002Z,88.54
2023-03-14T01:08:39.623Z,90.19
2023-03-14T01:11:05.430Z,91.26
2023-03-14T01:13:26.890Z,89.69
2023-03-14T01:15:48.359Z,90.93
2023-03-14T01:18:09.839Z,91.05
2023-03-14T01:20:31.632Z,91.34
2023-03-14T01:22:53.106Z,91.44
2023-03-14T01:25:16.844Z,92.44
2023-03-14T01:27:38.669Z,91.82
2023-03-14T01:30:00.269Z,92.48
2023-03-14T01:32:21.826Z,92.11
2023-03-14T01:34:43.420Z,92.77
2023-03-14T01:37:04.993Z,90.93
2023-03-14T01:39:26.489Z,93.20
2023-03-14T01:41:47.903Z,92.58
2023-03-14T01:44:12.801Z,92.43
2023-03-14T01:46:39.252Z,93.23
2023-03-14T01:49:15.542Z,93.08
2023-03-14T01:51:39.715Z,92.00
2023-03-14T01:54:08.559Z,93.33
2023-03-14T01:56:31.476Z,93.25
2023-03-14T01:58:53.892Z,93.74
2023-03-14T02:01:20.278Z,93.82
2023-03-14T02:03:49.979Z,93.02
2023-03-14T02:06:12.387Z,92.32
2023-03-14T02:08:36.345Z,93.24
2023-03-14T02:10:57.930Z,92.97
2023-03-14T02:13:22.407Z,93.53
2023-03-14T02:15:44.249Z,93.26
2023-03-14T02:18:06.699Z,94.10
2023-03-14T02:20:45.579Z,93.64
2023-03-14T02:23:07.116Z,93.66
2023-03-14T02:25:38.416Z,94.38
2023-03-14T02:28:00.029Z,94.09
2023-03-14T02:30:25.886Z,94.82
2023-03-14T02:32:50.879Z,94.71
2023-03-14T02:35:16.974Z,95.22
2023-03-14T02:37:55.637Z,94.74
2023-03-14T02:40:17.519Z,94.33
2023-03-14T02:42:39.276Z,94.91
2023-03-14T02:45:06.846Z,94.80
2023-03-14T02:47:31.388Z,94.85
2023-03-14T02:49:58.909Z,95.29
2023-03-14T02:52:20.362Z,95.83
2023-03-14T02:54:41.838Z,95.94
2023-03-14T02:57:04.183Z,95.02
2023-03-14T02:59:25.637Z,95.75
2023-03-14T03:01:47.079Z,95.31
2023-03-14T03:04:08.635Z,95.40
2023-03-14T03:06:30.160Z,94.66
2023-03-14T03:08:51.613Z,94.13
2023-03-14T03:11:13.112Z,94.38
2023-03-14T03:13:35.389Z,93.48
2023-03-14T03:15:56.894Z,94.62
2023-03-14T03:18:18.393Z,93.82
2023-03-14T03:20:39.871Z,93.89
2023-03-14T03:23:01.454Z,93.66
2023-03-14T03:25:22.998Z,93.89
2023-03-14T03:27:44.515Z,94.99
2023-03-14T03:30:07.020Z,94.90
2023-03-14T03:32:28.538Z,95.64
2023-03-14T03:34:50.075Z,93.85
2023-03-14T03:37:11.494Z,94.11
2023-03-14T03:39:32.943Z,93.23
2023-03-14T03:41:54.368Z,92.65
2023-03-14T03:44:15.814Z,93.35
2023-03-14T03:46:37.278Z,93.70
2023-03-14T03:49:00.482Z,94.06
2023-03-14T03:51:22.012Z,94.20
2023-03-14T03:53:43.713Z,93.93
2023-03-14T03:56:05.679Z,94.47
2023-03-14T03:58:27.162Z,93.99
2023-03-14T04:00:48.637Z,93.47
2023-03-14T04:03:10.146Z,94.61
2023-03-14T04:05:31.630Z,95.55
2023-03-14T04:07:53.110Z,96.03
2023-03-14T04:10:14.571Z,95.43
2023-03-14T04:12:36.048Z,96.70
2023-03-14T04:14:57.631Z,92.67
2023-03-14T04:17:19.804Z,94.70
2023-03-14T04:19:43.194Z,93.04
2023-03-14T04:22:04.614Z,93.66
2023-03-14T04:24:26.147Z,93.43
2023-03-14T04:26:47.596Z,92.78
2023-03-14T04:29:09.684Z,94.10
2023-03-14T04:31:32.110Z,94.26
2023-03-14T04:33:53.645Z,93.29
2023-03-14T04:36:15.483Z,94.06
2023-03-14T04:38:37.497Z,94.71
2023-03-14T04:41:00.126Z,93.99
2023-03-14T04:43:21.667Z,93.15
2023-03-14T04:45:43.869Z,92.64
2023-03-14T04:48:05.556Z,92.46
2023-03-14T04:50:27.082Z,91.31
2023-03-14T04:52:48.576Z,92.29
2023-03-14T04:55:10.115Z,92.17
2023-03-14T04:57:31.573Z,92.63
2023-03-14T04:59:53.104Z,92.22
2023-03-14T05:02:14.571Z,91.91
2023-03-14T05:04:36.277Z,92.65
2023-03-14T05:06:57.784Z,92.38
2023-03-14T05:09:19.231Z,92.22
2023-03-14T05:11:40.658Z,92.71
2023-03-14T05:14:02.167Z,92.69
2023-03-14T05:16:23.640Z,92.67
2023-03-14T05:18:45.120Z,92.61
2023-03-14T05:21:06.935Z,92.91
2023-03-14T05:23:29.072Z,92.83
2023-03-14T05:25:50.520Z,92.54
2023-03-14T05:28:12.038Z,92.80
2023-03-14T05:30:34.743Z,93.72
2023-03-14T05:32:56.272Z,93.72
2023-03-14T05:35:18.037Z,93.45
2023-03-14T05:37:39.523Z,93.66
2023-03-14T05:40:01.030Z,93.83
2023-03-14T05:42:22.489Z,92.87
2023-03-14T05:44:43.977Z,93.12
2023-03-14T05:47:05.526Z,92.27
2023-03-14T05:49:27.051Z,93.00
2023-03-14T05:51:48.556Z,93.50
2023-03-14T05:54:10.098Z,92.92
2023-03-14T05:56:31.593Z,92.58
2023-03-14T05:58:53.052Z,93.29
2023-03-14T06:01:14.507Z,93.16
2023-03-14T06:03:36.517Z,93.15
2023-03-14T06:05:58.259Z,94.36
2023-03-14T06:08:19.704Z,94.74
2023-03-14T06:10:41.201Z,96.12
2023-03-14T06:13:02.803Z,96.94
2023-03-14T06:15:24.249Z,97.06
2023-03-14T06:17:45.725Z,95.46
2023-03-14T06:20:07.731Z,95.78
2023-03-14T06:22:29.336Z,95.75
2023-03-14T06:24:50.793Z,95.29
2023-03-14T06:27:12.287Z,93.63
2023-03-14T06:29:33.862Z,93.70
2023-03-14T06:31:55.826Z,91.42
2023-03-14T06:34:17.311Z,91.62
2023-03-14T06:36:38.730Z,91.75
2023-03-14T06:39:00.242Z,90.74
2023-03-14T06:41:24.662Z,90.35
2023-03-14T06:43:46.163Z,90.56
2023-03-14T06:46:07.758Z,90.81
2023-03-14T06:48:29.260Z,90.92
2023-03-14T06:50:50.776Z,92.84
2023-03-14T06:53:12.305Z,92.75
2023-03-14T06:55:33.775Z,93.63
2023-03-14T06:57:55.314Z,93.45
2023-03-14T07:00:17.185Z,93.83
2023-03-14T07:02:42.927Z,94.57
2023-03-14T07:05:05.356Z,94.24
2023-03-14T07:07:28.332Z,94.80
2023-03-14T07:09:50.128Z,93.61
2023-03-14T07:12:11.748Z,94.63
2023-03-14T07:14:33.203Z,93.69
2023-03-14T07:16:54.704Z,92.30
2023-03-14T07:19:16.180Z,92.80
2023-03-14T07:21:37.747Z,91.43
2023-03-14T07:23:59.193Z,91.04
2023-03-14T07:26:20.815Z,89.41
2023-03-14T07:28:42.583Z,90.43
2023-03-14T07:31:04.221Z,89.67
2023-03-14T07:33:25.742Z,90.17
2023-03-14T07:35:49.325Z,89.59
2023-03-14T07:38:10.855Z,89.65
2023-03-14T07:40:32.301Z,88.84
2023-03-14T07:42:56.209Z,90.09
2023-03-14T07:45:18.201Z,89.43
2023-03-14T07:47:39.775Z,89.45
2023-03-14T07:50:01.303Z,89.24
2023-03-14T07:52:22.774Z,90.91
2023-03-14T07:54:44.275Z,90.96
2023-03-14T07:57:05.739Z,91.68
2023-03-14T07:59:28.403Z,91.87
2023-03-14T08:01:49.875Z,91.80
2023-03-14T08:04:11.800Z,91.48
2023-03-14T08:06:33.295Z,89.37
2023-03-14T08:08:54.780Z,90.09
2023-03-14T08:11:16.260Z,89.87
2023-03-14T08:13:38.214Z,89.95
2023-03-14T08:15:59.683Z,91.05
2023-03-14T08:18:21.246Z,90.52
2023-03-14T08:20:42.683Z,90.52
2023-03-14T08:23:04.202Z,90.60
2023-03-14T08:25:26.713Z,90.06
2023-03-14T08:27:48.181Z,91.00
2023-03-14T08:30:15.053Z,89.27
2023-03-14T08:32:36.883Z,91.13
2023-03-14T08:34:58.428Z,90.35
2023-03-14T08:37:26.685Z,88.21
2023-03-14T08:39:48.711Z,89.01
2023-03-14T08:42:10.212Z,88.73
2023-03-14T08:44:31.880Z,89.80
2023-03-14T08:46:53.362Z,87.92
2023-03-14T08:49:15.835Z,87.91
2023-03-14T08:51:37.401Z,88.42
2023-03-14T08:53:58.941Z,87.72
2023-03-14T08:56:20.374Z,87.44
2023-03-14T08:58:42.448Z,87.52
2023-03-14T09:01:04.055Z,85.93
2023-03-14T09:03:26.448Z,86.06
2023-03-14T09:05:47.963Z,86.61
2023-03-14T09:08:09.403Z,86.78
2023-03-14T09:10:30.849Z,87.51
2023-03-14T09:12:52.351Z,86.92
2023-03-14T09:15:13.884Z,86.20
2023-03-14T09:17:35.315Z,86.29
2023-03-14T09:19:58.838Z,86.76
2023-03-14T09:22:22.333Z,86.10
2023-03-14T09:24:43.828Z,86.20
2023-03-14T09:27:06.436Z,84.99
2023-03-14T09:29:27.892Z,86.29
2023-03-14T09:31:49.467Z,85.32
2023-03-14T09:34:10.974Z,84.77
2023-03-14T09:36:32.442Z,86.47
2023-03-14T09:38:53.944Z,86.18
2023-03-14T09:41:26.604Z,85.99
2023-03-14T09:43:52.109Z,86.00
2023-03-14T09:46:15.216Z,84.67
2023-03-14T09:48:36.824Z,85.65
2023-03-14T09:51:00.950Z,88.36
2023-03-14T09:53:29.818Z,87.65
2023-03-14T09:55:53.181Z,87.52
2023-03-14T09:58:18.875Z,86.85
2023-03-14T10:00:41.001Z,85.85
2023-03-14T10:03:14.622Z,86.91
2023-03-14T10:05:36.100Z,86.27
2023-03-14T10:07:57.588Z,84.76
2023-03-14T10:10:25.571Z,85.43
2023-03-14T10:12:59.151Z,85.71
2023-03-14T10:15:31.055Z,85.07
2023-03-14T10:17:53.150Z,86.14
2023-03-14T10:20:33.634Z,86.11
2023-03-14T10:22:56.140Z,86.52
2023-03-14T10:25:27.794Z,86.25
2023-03-14T10:27:49.396Z,88.30
2023-03-14T10:30:30.993Z,85.59
2023-03-14T10:32:52.470Z,84.34
2023-03-14T10:35:16.853Z,82.65
2023-03-14T10:37:51.291Z,83.31
2023-03-14T10:40:14.636Z,83.72
2023-03-14T10:42:42.776Z,82.01
2023-03-14T10:45:29.802Z,83.42
2023-03-14T10:47:52.005Z,81.93
2023-03-14T10:50:31.441Z,80.74
2023-03-14T10:53:03.155Z,82.46
2023-03-14T10:55:27.174Z,81.64
2023-03-14T10:57:48.594Z,78.74
2023-03-14T11:00:18.023Z,80.45
2023-03-14T11:03:04.102Z,82.64
2023-03-14T11:05:28.373Z,81.28
2023-03-14T11:07:52.245Z,79.30
2023-03-14T11:10:35.584Z,79.77
2023-03-14T11:13:15.321Z,78.18
2023-03-14T11:16:05.584Z,79.07
2023-03-14T11:18:42.497Z,76.61
2023-03-14T11:21:14.770Z,75.08
2023-03-14T11:23:38.963Z,74.29
2023-03-14T11:26:09.774Z,71.34
2023-03-14T11:28:46.589Z,71.59
2023-03-14T11:31:22.092Z,69.91
2023-03-14T11:34:07.625Z,71.15
2023-03-14T11:37:19.994Z,68.79
2023-03-14T11:39:46.026Z,71.30
2023-03-14T11:42:17.417Z,72.04
2023-03-14T11:44:40.822Z,71.75
2023-03-14T11:47:08.361Z,70.97
2023-03-14T11:49:39.824Z,71.83
2023-03-14T11:52:06.933Z,69.61
2023-03-14T11:54:36.618Z,71.05
2023-03-14T11:57:19.043Z,70.65
2023-03-14T12:00:13.459Z,71.39
2023-03-14T12:02:43.807Z,75.01
2023-03-14T12:05:30.532Z,73.64
2023-03-14T12:08:30.960Z,74.47
2023-03-14T12:10:55.541Z,72.93
2023-03-14T12:13:17.952Z,70.68
2023-03-14T12:15:44.680Z,67.57
2023-03-14T12:18:19.879Z,67.49
2023-03-14T12:20:41.410Z,70.18
2023-03-14T12:23:06.579Z,66.54
2023-03-14T12:25:32.080Z,64.33
2023-03-14T12:27:56.245Z,67.66
2023-03-14T12:30:31.351Z,68.36
2023-03-14T12:33:11.257Z,71.07
2023-03-14T12:35:44.356Z,73.15
2023-03-14T12:38:11.339Z,77.63
2023-03-14T12:40:38.672Z,80.84
2023-03-14T12:43:02.807Z,82.91
2023-03-14T12:45:33.192Z,85.95
2023-03-14T12:47:57.792Z,85.10
2023-03-14T12:50:29.609Z,85.34
2023-03-14T12:53:32.217Z,84.37
2023-03-14T12:56:23.394Z,83.49
2023-03-14T12:59:21.023Z,82.34
2023-03-14T13:01:57.123Z,82.50
2023-03-14T13:04:26.230Z,86.25
2023-03-14T13:06:55.524Z,84.92
2023-03-14T13:09:35.311Z,85.89
2023-03-14T13:12:02.814Z,85.68
2023-03-14T13:14:24.642Z,88.21
2023-03-14T13:16:48.315Z,89.74
2023-03-14T13:19:24.217Z,90.15
2023-03-14T13:21:45.953Z,91.40
2023-03-14T13:24:22.723Z,92.70
2023-03-14T13:26:45.031Z,91.20
2023-03-14T13:29:25.673Z,90.55
2023-03-14T13:31:49.458Z,93.00
2023-03-14T13:34:12.285Z,94.58
2023-03-14T13:36:36.837Z,92.20
2023-03-14T13:39:00.849Z,94.03
2023-03-14T13:41:25.081Z,93.01
2023-03-14T13:43:46.641Z,98.83
2023-03-14T13:46:15.115Z,100.00
2023-03-14T13:48:47.260Z,100.00
2023-03-14T13:51:13.980Z,100.00
2023-03-14T13:53:50.149Z,100.00
2023-03-14T13:56:12.544Z,99.69
2023-03-14T13:58:39.021Z,100.00
2023-03-14T14:01:19.641Z,100.00
2023-03-14T14:03:43.491Z,100.00
2023-03-14T14:06:09.689Z,100.00
2023-03-14T14:08:31.376Z,100.00
2023-03-14T14:10:58.214Z,97.86
2023-03-14T14:13:22.576Z,99.72
2023-03-14T14:15:47.384Z,98.86
2023-03-14T14:18:12.549Z,100.00
2023-03-14T14:20:39.158Z,100.00
2023-03-14T14:23:04.221Z,100.00
2023-03-14T14:25:25.934Z,100.00
2023-03-14T14:27:51.577Z,100.00
2023-03-14T14:30:18.843Z,100.00
2023-03-14T14:32:41.216Z,100.00
2023-03-14T14:35:04.902Z,100.00
2023-03-14T14:37:35.483Z,99.91
2023-03-14T14:39:59.835Z,99.75
2023-03-14T14:42:25.539Z,100.00
2023-03-14T14:44:47.122Z,100.00
2023-03-14T14:47:14.882Z,100.00
2023-03-14T14:49:36.364Z,100.00
2023-03-14T14:52:10.541Z,96.90
2023-03-14T14:54:40.933Z,96.38
2023-03-14T14:57:05.408Z,94.96
2023-03-14T14:59:30.065Z,98.29
2023-03-14T15:01:57.319Z,95.32
2023-03-14T15:04:18.965Z,93.79
2023-03-14T15:06:43.138Z,96.21
2023-03-14T15:09:06.522Z,96.48
2023-03-14T15:11:28.065Z,97.84
2023-03-14T15:13:50.379Z,97.90
2023-03-14T15:16:13.517Z,98.18
2023-03-14T15:18:34.993Z,99.84
2023-03-14T15:20:56.461Z,98.94
2023-03-14T15:23:20.778Z,93.84
2023-03-14T15:25:55.082Z,94.98
2023-03-14T15:28:23.554Z,96.91
2023-03-14T15:30:44.997Z,95.41
2023-03-14T15:33:09.795Z,94.88
2023-03-14T15:35:31.265Z,92.32
2023-03-14T15:37:52.997Z,89.81
2023-03-14T15:40:15.971Z,90.32
2023-03-14T15:42:38.179Z,92.02
2023-03-14T15:44:59.780Z,88.03
2023-03-14T15:47:21.359Z,87.18
2023-03-14T15:49:43.070Z,87.15
2023-03-14T15:52:04.802Z,87.12
2023-03-14T15:54:29.932Z,87.32
2023-03-14T15:56:53.103Z,84.61
2023-03-14T15:59:14.788Z,85.52
2023-03-14T16:01:36.268Z,88.10
2023-03-14T16:03:57.802Z,88.52
2023-03-14T16:06:20.150Z,86.34
2023-03-14T16:08:43.397Z,87.59
2023-03-14T16:11:06.041Z,87.42
2023-03-14T16:13:28.638Z,88.97
2023-03-14T16:16:05.126Z,87.41
2023-03-14T16:18:29.900Z,87.32
2023-03-14T16:21:00.056Z,90.98
2023-03-14T16:23:22.110Z,90.47
2023-03-14T16:25:45.079Z,88.39
2023-03-14T16:28:11.112Z,89.06
2023-03-14T16:30:32.933Z,86.97
2023-03-14T16:32:54.479Z,89.22
2023-03-14T16:35:15.980Z,87.42
2023-03-14T16:37:37.417Z,87.60
2023-03-14T16:40:14.169Z,86.51
2023-03-14T16:42:35.661Z,88.82
2023-03-14T16:44:57.205Z,87.16
2023-03-14T16:47:18.655Z,86.15
2023-03-14T16:49:40.361Z,85.89
2023-03-14T16:52:01.842Z,87.17
2023-03-14T16:54:23.313Z,88.09
2023-03-14T16:56:45.306Z,87.86
2023-03-14T16:59:07.700Z,89.70
2023-03-14T17:01:29.360Z,89.91
2023-03-14T17:03:51.920Z,93.09
2023-03-14T17:06:27.812Z,93.69
2023-03-14T17:08:49.866Z,95.51
2023-03-14T17:11:11.524Z,95.67
2023-03-14T17:13:33.098Z,95.56
2023-03-14T17:16:01.791Z,96.08
2023-03-14T17:18:24.625Z,93.51
2023-03-14T17:20:46.045Z,93.06
2023-03-14T17:23:07.526Z,95.50
2023-03-14T17:25:28.985Z,95.62
2023-03-14T17:27:50.487Z,93.71
2023-03-14T17:30:12.520Z,94.60
2023-03-14T17:32:34.034Z,93.79
2023-03-14T17:34:55.536Z,94.45
2023-03-14T17:37:16.989Z,92.46
2023-03-14T17:39:39.551Z,92.07
2023-03-14T17:42:01.039Z,92.70
2023-03-14T17:44:22.722Z,94.37
2023-03-14T17:46:44.206Z,94.76
2023-03-14T17:49:05.750Z,96.61
2023-03-14T17:51:27.184Z,94.91
2023-03-14T17:53:48.748Z,95.39
2023-03-14T17:56:11.805Z,94.10
2023-03-14T17:58:36.651Z,94.75
2023-03-14T18:00:58.132Z,95.28
2023-03-14T18:03:19.640Z,95.35
2023-03-14T18:05:41.607Z,96.39
2023-03-14T18:08:03.070Z,95.99
2023-03-14T18:10:24.746Z,95.19
2023-03-14T18:12:46.157Z,96.13
2023-03-14T18:15:08.171Z,94.89
2023-03-14T18:17:30.778Z,95.38
2023-03-14T18:19:52.282Z,96.70
2023-03-14T18:22:14.558Z,96.45
2023-03-14T18:24:36.215Z,96.46
2023-03-14T18:26:57.645Z,96.22
2023-03-14T18:29:19.078Z,95.76
2023-03-14T18:31:42.148Z,95.12
2023-03-14T18:34:03.663Z,95.36
2023-03-14T18:36:25.835Z,95.16
2023-03-14T18:38:49.664Z,95.28
2023-03-14T18:41:13.293Z,96.16
2023-03-14T18:43:35.062Z,94.73
2023-03-14T18:45:58.167Z,94.65
2023-03-14T18:48:19.612Z,92.80
2023-03-14T18:50:41.589Z,91.59
2023-03-14T18:53:03.169Z,90.51
2023-03-14T18:55:24.621Z,91.47
2023-03-14T18:57:46.117Z,92.96
2023-03-14T19:00:13.867Z,92.52
2023-03-14T19:02:36.244Z,91.68
2023-03-14T19:04:57.772Z,91.51
2023-03-14T19:07:20.302Z,91.58
2023-03-14T19:09:42.899Z,90.32
2023-03-14T19:12:04.470Z,88.40
2023-03-14T19:14:26.010Z,88.85
2023-03-14T19:16:47.897Z,86.90
2023-03-14T19:19:09.372Z,86.32
2023-03-14T19:21:33.325Z,86.90
2023-03-14T19:23:54.860Z,83.88
2023-03-14T19:26:16.552Z,84.85
2023-03-14T19:28:38.084Z,83.08
2023-03-14T19:31:02.473Z,84.74
2023-03-14T19:33:24.026Z,84.52
2023-03-14T19:35:46.238Z,83.38
2023-03-14T19:38:08.654Z,84.00
2023-03-14T19:40:30.148Z,83.38
2023-03-14T19:42:51.654Z,84.03
2023-03-14T19:45:13.449Z,83.51
2023-03-14T19:47:35.153Z,83.78
2023-03-14T19:49:58.233Z,83.58
2023-03-14T19:52:19.738Z,83.28
2023-03-14T19:54:42.201Z,83.09
2023-03-14T19:57:05.424Z,82.90
2023-03-14T19:59:26.972Z,82.97
2023-03-14T20:01:48.997Z,82.85
2023-03-14T20:04:10.797Z,83.17
2023-03-14T20:06:32.690Z,82.81
2023-03-14T20:08:54.149Z,82.48
2023-03-14T20:11:15.683Z,83.26
2023-03-14T20:13:37.166Z,83.19
2023-03-14T20:15:58.596Z,82.97
2023-03-14T20:18:20.115Z,81.66
2023-03-14T20:20:41.780Z,81.87
2023-03-14T20:23:03.689Z,82.37
2023-03-14T20:25:25.276Z,82.52
2023-03-14T20:27:47.431Z,82.15
2023-03-14T20:30:12.973Z,82.20
2023-03-14T20:32:34.575Z,81.15
2023-03-14T20:34:56.208Z,79.22
2023-03-14T20:37:17.619Z,80.03
2023-03-14T20:39:39.152Z,80.51
2023-03-14T20:42:00.591Z,80.56
2023-03-14T20:44:22.056Z,81.71
2023-03-14T20:46:43.996Z,82.27
2023-03-14T20:49:05.685Z,81.62
2023-03-14T20:51:27.161Z,80.99
2023-03-14T20:53:48.624Z,82.90
2023-03-14T20:56:10.168Z,81.78
2023-03-14T20:58:31.704Z,80.93
2023-03-14T21:00:55.383Z,82.30
2023-03-14T21:03:18.386Z,82.62
2023-03-14T21:05:47.563Z,81.15
2023-03-14T21:08:09.126Z,79.46
2023-03-14T21:10:30.611Z,81.40
2023-03-14T21:12:52.092Z,83.25
2023-03-14T21:15:14.667Z,83.25
2023-03-14T21:17:37.835Z,85.26
2023-03-14T21:20:00.772Z,84.94
2023-03-14T21:22:22.182Z,86.62
2023-03-14T21:24:44.295Z,86.09
2023-03-14T21:27:05.741Z,85.72
2023-03-14T21:29:27.242Z,81.98
2023-03-14T21:31:50.079Z,82.87
2023-03-14T21:34:11.872Z,82.85
2023-03-14T21:36:33.673Z,83.73
2023-03-14T21:38:55.111Z,84.42
2023-03-14T21:41:16.571Z,82.57
2023-03-14T21:43:38.027Z,83.21
2023-03-14T21:45:59.522Z,81.91
2023-03-14T21:48:24.677Z,83.52
2023-03-14T21:50:47.152Z,81.29
2023-03-14T21:53:08.631Z,80.24
2023-03-14T21:55:30.429Z,80.20
2023-03-14T21:57:54.076Z,78.43
2023-03-14T22:00:17.801Z,78.28
2023-03-14T22:02:40.646Z,79.74
2023-03-14T22:05:02.302Z,76.66
2023-03-14T22:07:23.750Z,76.22
2023-03-14T22:09:46.125Z,77.60
2023-03-14T22:12:08.121Z,73.55
2023-03-14T22:14:29.686Z,74.73
2023-03-14T22:16:55.113Z,74.98
2023-03-14T22:19:16.700Z,71.78
2023-03-14T22:21:38.208Z,72.15
2023-03-14T22:23:59.649Z,73.01
2023-03-14T22:26:21.326Z,70.42
2023-03-14T22:28:42.815Z,70.11
2023-03-14T22:31:04.439Z,72.24
2023-03-14T22:33:25.922Z,73.20
2023-03-14T22:35:51.647Z,72.27
2023-03-14T22:38:13.152Z,72.73
2023-03-14T22:40:37.677Z,69.95
2023-03-14T22:42:59.264Z,68.13
2023-03-14T22:45:20.913Z,67.17
2023-03-14T22:47:42.361Z,68.28
2023-03-14T22:50:04.798Z,67.24
2023-03-14T22:52:31.176Z,66.67
2023-03-14T22:54:56.446Z,66.52
2023-03-14T22:57:18.027Z,67.74
2023-03-14T22:59:39.479Z,67.00
2023-03-14T23:02:00.903Z,66.58
2023-03-14T23:04:22.386Z,67.94
2023-03-14T23:06:43.883Z,68.25
2023-03-14T23:09:06.003Z,66.19
2023-03-14T23:11:28.092Z,65.63
2023-03-14T23:13:49.597Z,67.03
2023-03-14T23:16:13.611Z,67.83
2023-03-14T23:18:36.326Z,67.18
2023-03-14T23:21:18.668Z,67.47
2023-03-14T23:23:41.330Z,68.35
2023-03-14T23:26:04.716Z,67.36
2023-03-14T23:28:26.175Z,70.25
2023-03-14T23:30:47.605Z,68.63
2023-03-14T23:33:09.563Z,67.45
2023-03-14T23:35:31.042Z,68.56
2023-03-14T23:37:52.548Z,69.13
2023-03-14T23:40:14.132Z,68.95
2023-03-14T23:42:36.097Z,68.63
2023-03-14T23:44:57.575Z,69.00
2023-03-14T23:47:19.085Z,67.02
2023-03-14T23:49:41.730Z,68.05
2023-03-14T23:52:03.380Z,68.72
2023-03-14T23:54:24.872Z,68.58
2023-03-14T23:56:46.480Z,69.34
2023-03-14T23:59:08.242Z,70.60
